Wednesday, September 19, 2018, 2:50 PM EDT
Back to Local

KFYJ, West Point, Middle Peninsula Regional Airport

Location: Shacklefords, VA, United States Lat: 37.521
Local Time: 2:50 PM EDT (18:50 GMT) Lon: -76.764
Time Zone: US/Eastern Elev: 22 ft

Show me the last for .
Show Decoded

2018-09-19 14:35 METAR KFYJ 191835Z AUTO 34006KT 10SM SCT040 SCT045 30/22 A2993 RMK AO1 T02970218
                 =
2018-09-19 14:15 METAR KFYJ 191815Z AUTO 35007KT 10SM SCT035 29/22 A2993 RMK AO1 T02940217 =
2018-09-19 13:55 METAR KFYJ 191755Z AUTO 35005KT 10SM SCT037 29/22 A2993 RMK AO1 T02920218 10293
                 20208 =
2018-09-19 13:35 METAR KFYJ 191735Z AUTO 34006KT 10SM SCT037 29/22 A2994 RMK AO1 T02920217 =
2018-09-19 13:15 METAR KFYJ 191715Z AUTO 03005KT 10SM CLR 29/21 A2994 RMK AO1 T02890214 =
2018-09-19 12:55 METAR KFYJ 191655Z AUTO 36007KT 10SM SCT031 SCT040 29/21 A2994 RMK AO1 T02880214
                 =
2018-09-19 12:35 METAR KFYJ 191635Z AUTO 31006KT 10SM SCT031 SCT037 SCT043 29/23 A2994 RMK AO1
                 T02860225 =
2018-09-19 12:15 METAR KFYJ 191615Z AUTO 32006KT 10SM SCT031 BKN037 BKN044 28/22 A2994 RMK AO1
                 T02800218 =
2018-09-19 11:55 METAR KFYJ 191555Z AUTO 33005KT 10SM SCT029 SCT037 28/22 A2994 RMK AO1 T02830221
                 =
2018-09-19 11:35 METAR KFYJ 191535Z AUTO 32007KT 290V350 10SM SCT027 28/22 A2994 RMK AO1
                 T02750219 =
2018-09-19 11:20 METAR KFYJ 191520Z AUTO 35006KT 10SM SCT027 28/22 A2994 RMK AO1 T02770222 =
2018-09-19 10:55 METAR KFYJ 191455Z AUTO 33006KT 10SM CLR 27/22 A2994 RMK AO1 T02710223 =
2018-09-19 10:35 METAR KFYJ 191435Z AUTO 32007KT 10SM CLR 26/22 A2993 RMK AO1 T02640220 =
2018-09-19 10:15 METAR KFYJ 191415Z AUTO 31006KT 10SM CLR 26/22 A2993 RMK AO1 T02600223 =
2018-09-19 09:55 METAR KFYJ 191355Z AUTO 34005KT 10SM CLR 25/22 A2993 RMK AO1 T02520219 =
2018-09-19 09:35 METAR KFYJ 191335Z AUTO 34005KT 10SM CLR 24/22 A2992 RMK AO1 T02430217 =
2018-09-19 09:15 METAR KFYJ 191315Z AUTO 31005KT 10SM CLR 23/21 A2992 RMK AO1 T02320212 =
2018-09-19 08:55 METAR KFYJ 191255Z AUTO 33004KT 10SM CLR 23/21 A2991 RMK AO1 T02270211 =
2018-09-19 08:35 METAR KFYJ 191235Z AUTO 31004KT 10SM CLR 22/21 A2991 RMK AO1 T02210208 =
2018-09-19 08:15 METAR KFYJ 191215Z AUTO 00000KT 10SM CLR 21/20 A2991 RMK AO1 T02130203 =
2018-09-19 07:55 METAR KFYJ 191155Z AUTO 30004KT 10SM CLR 21/20 A2991 RMK AO1 70025 T02070201
                 10215 20196 =
2018-09-19 07:30 METAR KFYJ 191130Z AUTO 29003KT 10SM CLR 20/20 A2990 RMK AO1 T02020200 =
2018-09-19 07:15 METAR KFYJ 191115Z AUTO 00000KT 7SM CLR 20/20 A2989 RMK AO1 T02000197 =
2018-09-19 06:55 METAR KFYJ 191055Z AUTO 31003KT 10SM CLR 20/20 A2989 RMK AO1 T02000197 =
2018-09-19 06:35 METAR KFYJ 191035Z AUTO 30004KT 7SM CLR 20/20 A2988 RMK AO1 T01970197 =
2018-09-19 06:15 METAR KFYJ 191015Z AUTO 00000KT 7SM CLR 20/20 A2987 RMK AO1 T01970197 =
2018-09-19 05:55 METAR KFYJ 190955Z AUTO 00000KT 10SM CLR 20/20 A2987 RMK AO1 T02000197 =
2018-09-19 05:35 METAR KFYJ 190935Z AUTO 30003KT 10SM CLR 20/20 A2987 RMK AO1 T02000198 =
2018-09-19 05:15 METAR KFYJ 190915Z AUTO 00000KT 10SM CLR 20/20 A2987 RMK AO1 T02020199 =
2018-09-19 04:55 METAR KFYJ 190855Z AUTO 00000KT 10SM CLR 20/20 A2987 RMK AO1 T02030201 =
2018-09-19 04:35 METAR KFYJ 190835Z AUTO 30003KT 10SM CLR 20/20 A2986 RMK AO1 T02030201 =
2018-09-19 04:15 METAR KFYJ 190815Z AUTO 00000KT 10SM CLR 20/20 A2986 RMK AO1 T02030201 =
2018-09-19 03:55 METAR KFYJ 190755Z AUTO 00000KT 10SM CLR 21/20 A2986 RMK AO1 T02050201 =
2018-09-19 03:35 METAR KFYJ 190735Z AUTO 00000KT 10SM CLR 21/20 A2986 RMK AO1 T02050201 =
2018-09-19 03:15 METAR KFYJ 190715Z AUTO 00000KT 10SM CLR 21/20 A2986 RMK AO1 T02070202 =
2018-09-19 02:55 METAR KFYJ 190655Z AUTO 29004KT 10SM CLR 21/20 A2986 RMK AO1 T02090202 =
2018-09-19 02:35 METAR KFYJ 190635Z AUTO 29003KT 10SM CLR 21/20 A2986 RMK AO1 T02110204 =
2018-09-19 02:15 METAR KFYJ 190615Z AUTO 30003KT 10SM CLR 21/21 A2985 RMK AO1 T02120205 =
2018-09-19 01:55 METAR KFYJ 190555Z AUTO 30003KT 10SM CLR 22/21 A2985 RMK AO1 T02150206 10232
                 20215 402920215 =
2018-09-19 01:35 METAR KFYJ 190535Z AUTO 31004KT 10SM CLR 22/21 A2984 RMK AO1 T02170207 =
2018-09-19 01:15 METAR KFYJ 190515Z AUTO 30004KT 10SM CLR 22/21 A2984 RMK AO1 T02180208 =
2018-09-19 00:55 METAR KFYJ 190455Z AUTO 31004KT 10SM CLR 22/21 A2984 RMK AO1 T02200210 =
2018-09-19 00:40 METAR KFYJ 190440Z AUTO 30003KT 10SM CLR 22/21 A2984 RMK AO1 T02210212 =
2018-09-19 00:15 METAR KFYJ 190415Z AUTO 30003KT 10SM CLR 23/22 A2984 RMK AO1 T02250217 =
2018-09-18 23:55 METAR KFYJ 190355Z AUTO 31003KT 10SM SCT070 23/22 A2985 RMK AO1 T02260220 =
2018-09-18 23:35 METAR KFYJ 190335Z AUTO 31003KT 10SM BKN070 23/23 A2985 RMK AO1 T02300225 =
2018-09-18 23:15 METAR KFYJ 190315Z AUTO 29003KT 10SM BKN070 23/23 A2985 RMK AO1 T02300229 =
2018-09-18 22:55 METAR KFYJ 190255Z AUTO 00000KT 10SM SCT060 BKN070 23/23 A2984 RMK AO1 T02310231
                 =
2018-09-18 22:35 METAR KFYJ 190235Z AUTO 29003KT 10SM SCT060 BKN070 23/23 A2985 RMK AO1 T02300230
                 =
2018-09-18 22:15 METAR KFYJ 190215Z AUTO 29004KT 10SM SCT060 BKN070 BKN090 23/23 A2984 RMK AO1
                 T02320230 =
2018-09-18 21:55 METAR KFYJ 190155Z AUTO 00000KT 10SM BKN060 OVC090 23/23 A2984 RMK AO1 T02300230
                 =
2018-09-18 21:35 METAR KFYJ 190135Z AUTO 00000KT 10SM BKN060 OVC080 23/23 A2984 RMK AO1 T02300230
                 =
2018-09-18 21:15 METAR KFYJ 190115Z AUTO 00000KT 10SM BKN060 OVC080 23/23 A2984 RMK AO1 T02300230
                 =
2018-09-18 20:55 METAR KFYJ 190055Z AUTO 00000KT 10SM BKN060 OVC070 23/23 A2983 RMK AO1 T02290228
                 =
2018-09-18 20:35 METAR KFYJ 190035Z AUTO 00000KT 10SM BKN060 OVC070 23/23 A2983 RMK AO1 T02280228
                 =
2018-09-18 20:15 METAR KFYJ 190015Z AUTO 00000KT 10SM OVC060 23/23 A2983 RMK AO1 T02270227 =
2018-09-18 19:55 METAR KFYJ 182355Z AUTO 00000KT 10SM OVC050 23/23 A2982 RMK AO1 60025 T02270226
                 10284 20227 =
2018-09-18 19:35 METAR KFYJ 182335Z AUTO 00000KT 10SM SCT041 BKN050 OVC065 23/23 A2982 RMK AO1
                 T02270225 =
2018-09-18 19:15 METAR KFYJ 182315Z AUTO 32003KT 10SM OVC039 23/23 A2981 RMK AO1 T02280225 =
2018-09-18 18:55 METAR KFYJ 182255Z AUTO 33005KT 10SM SCT029 OVC037 23/23 A2981 RMK AO1 P0001
                 T02300225 =
2018-09-18 18:35 METAR KFYJ 182235Z AUTO 31004KT 10SM SCT011 SCT023 OVC029 23/23 A2980 RMK AO1
                 P0001 T02300225 =
2018-09-18 18:15 METAR KFYJ 182215Z AUTO 31005KT 4SM SCT010 BKN015 OVC020 23/23 A2980 RMK AO1
                 P0001 T02300228 =
2018-09-18 17:55 METAR KFYJ 182155Z AUTO 29004KT 10SM SCT009 BKN015 OVC050 23/23 A2979 RMK AO1
                 P0013 T02330230 =
2018-09-18 17:35 METAR KFYJ 182135Z AUTO 31004KT 4SM BKN009 BKN014 OVC050 23/23 A2978 RMK AO1
                 P0013 T02340233 =
2018-09-18 17:15 METAR KFYJ 182115Z AUTO 30005KT 2SM BKN007 BKN017 OVC027 24/24 A2978 RMK AO1
                 P0006 T02350235 =
2018-09-18 16:55 METAR KFYJ 182055Z AUTO 30005KT 1 1/4SM SCT010 BKN028 OVC037 24/23 A2978 RMK AO1
                 P0010 60010 T02370233 =
2018-09-18 16:35 METAR KFYJ 182035Z AUTO 27009KT 10SM SCT035 BKN043 OVC050 27/23 A2976 RMK AO1
                 T02700229 =
2018-09-18 16:15 METAR KFYJ 182015Z AUTO 25009KT 10SM SCT030 SCT039 BKN050 28/23 A2976 RMK AO1
                 T02750229 =
2018-09-18 15:55 METAR KFYJ 181955Z AUTO 23006KT 10SM SCT060 SCT070 SCT095 28/23 A2975 RMK AO1
                 T02790230 =
2018-09-18 15:35 METAR KFYJ 181935Z AUTO 23006KT 10SM BKN060 OVC070 28/23 A2976 RMK AO1 T02750228
                 =
2018-09-18 15:15 METAR KFYJ 181915Z AUTO 23006KT 10SM SCT050 BKN070 OVC080 28/23 A2976 RMK AO1
                 T02750227 =

Support USWX by starting your Amazon purchase here.